createdAt,value
2023-03-22T00:04:42.240Z,993.3
2023-03-22T00:09:42.332Z,993.2
2023-03-22T00:14:42.237Z,993.1
2023-03-22T00:19:42.327Z,993.1
2023-03-22T00:24:42.269Z,993.0
2023-03-22T00:29:42.331Z,992.9
2023-03-22T00:34:42.245Z,992.7
2023-03-22T00:39:42.318Z,992.5
2023-03-22T00:44:42.268Z,992.4
2023-03-22T00:49:42.330Z,992.3
2023-03-22T00:54:42.276Z,992.2
2023-03-22T00:59:42.336Z,992.1
2023-03-22T01:04:42.280Z,992.0
2023-03-22T01:09:42.348Z,991.8
2023-03-22T01:14:42.282Z,991.8
2023-03-22T01:19:42.338Z,991.7
2023-03-22T01:24:42.278Z,991.5
2023-03-22T01:29:42.343Z,991.4
2023-03-22T01:34:42.274Z,991.2
2023-03-22T01:39:42.344Z,991.1
2023-03-22T01:44:42.281Z,991.0
2023-03-22T01:49:42.345Z,990.8
2023-03-22T01:54:42.282Z,990.9
2023-03-22T01:59:42.346Z,990.8
2023-03-22T02:04:42.295Z,990.4
2023-03-22T02:09:42.378Z,990.4
2023-03-22T02:14:42.287Z,990.2
2023-03-22T02:19:42.412Z,990.2
2023-03-22T02:24:44.009Z,990.0
2023-03-22T02:29:42.345Z,989.9
2023-03-22T02:39:42.352Z,989.8
2023-03-22T02:44:42.314Z,989.8
2023-03-22T02:54:44.536Z,989.7
2023-03-22T02:59:42.443Z,989.6
2023-03-22T03:04:42.332Z,989.6
2023-03-22T03:09:42.364Z,989.4
2023-03-22T03:14:42.377Z,989.3
2023-03-22T03:19:42.344Z,989.4
2023-03-22T03:24:42.308Z,989.3
2023-03-22T03:29:42.392Z,989.2
2023-03-22T03:34:42.293Z,989.2
2023-03-22T03:39:42.359Z,989.1
2023-03-22T03:44:42.337Z,989.1
2023-03-22T03:49:42.386Z,989.0
2023-03-22T03:54:42.322Z,988.8
2023-03-22T03:59:42.407Z,988.6
2023-03-22T04:04:42.396Z,988.5
2023-03-22T04:09:42.397Z,988.3
2023-03-22T04:19:42.392Z,987.9
2023-03-22T04:24:42.322Z,987.9
2023-03-22T04:29:42.411Z,987.9
2023-03-22T04:34:42.340Z,988.5
2023-03-22T04:39:42.411Z,988.5
2023-03-22T04:44:42.317Z,988.4
2023-03-22T04:49:42.371Z,988.5
2023-03-22T04:54:42.326Z,988.5
2023-03-22T04:59:42.373Z,988.4
2023-03-22T05:04:42.336Z,988.6
2023-03-22T05:09:42.467Z,988.5
2023-03-22T05:14:42.407Z,988.5
2023-03-22T05:19:42.397Z,988.5
2023-03-22T05:24:42.346Z,988.5
2023-03-22T05:29:42.402Z,988.6
2023-03-22T05:34:42.349Z,988.7
2023-03-22T05:39:42.410Z,988.6
2023-03-22T05:44:42.352Z,988.7
2023-03-22T05:49:42.409Z,988.7
2023-03-22T05:54:42.359Z,988.7
2023-03-22T05:59:42.410Z,988.7
2023-03-22T06:04:42.366Z,988.7
2023-03-22T06:09:42.485Z,988.8
2023-03-22T06:14:42.350Z,988.8
2023-03-22T06:19:42.432Z,989.0
2023-03-22T06:24:42.392Z,989.0
2023-03-22T06:29:42.419Z,989.0
2023-03-22T06:34:42.376Z,989.0
2023-03-22T06:39:42.430Z,989.1
2023-03-22T06:44:42.376Z,989.2
2023-03-22T06:49:42.420Z,989.2
2023-03-22T06:54:42.411Z,989.3
2023-03-22T06:59:42.426Z,989.5
2023-03-22T07:04:42.464Z,989.7
2023-03-22T07:09:42.454Z,989.8
2023-03-22T07:14:42.366Z,989.8
2023-03-22T07:19:42.454Z,989.9
2023-03-22T07:24:55.804Z,990.0
2023-03-22T07:29:42.388Z,990.2
2023-03-22T07:34:42.373Z,990.3
2023-03-22T07:39:42.462Z,990.4
2023-03-22T07:44:42.391Z,990.6
2023-03-22T07:49:42.468Z,990.6
2023-03-22T07:54:42.405Z,990.7
2023-03-22T07:59:42.456Z,990.8
2023-03-22T08:04:42.392Z,990.9
2023-03-22T08:09:42.471Z,991.0
2023-03-22T08:14:42.496Z,991.1
2023-03-22T08:19:42.463Z,991.1
2023-03-22T08:24:42.403Z,991.2
2023-03-22T08:29:42.454Z,991.1
2023-03-22T08:34:42.395Z,991.2
2023-03-22T08:39:42.461Z,991.1
2023-03-22T08:44:42.395Z,991.1
2023-03-22T08:49:42.372Z,991.2
2023-03-22T08:54:42.395Z,991.3
2023-03-22T08:59:42.469Z,991.3
2023-03-22T09:04:42.398Z,991.4
2023-03-22T09:09:42.467Z,991.4
2023-03-22T09:14:42.373Z,991.5
2023-03-22T09:19:42.402Z,991.4
2023-03-22T09:24:42.416Z,991.5
2023-03-22T09:29:42.389Z,991.6
2023-03-22T09:34:42.405Z,991.5
2023-03-22T09:39:42.472Z,991.6
2023-03-22T09:44:42.473Z,991.7
2023-03-22T09:49:53.022Z,991.7
2023-03-22T09:54:42.385Z,991.7
2023-03-22T09:59:42.497Z,991.7
2023-03-22T10:04:42.400Z,991.7
2023-03-22T10:09:42.493Z,991.6
2023-03-22T10:14:42.418Z,991.5
2023-03-22T10:19:42.543Z,991.6
2023-03-22T10:24:42.422Z,991.6
2023-03-22T10:29:42.425Z,991.6
2023-03-22T10:34:42.391Z,991.6
2023-03-22T10:39:42.538Z,991.6
2023-03-22T10:44:42.437Z,991.7
2023-03-22T10:49:42.441Z,991.7
2023-03-22T10:54:42.423Z,991.8
2023-03-22T10:59:42.419Z,991.8
2023-03-22T11:04:42.388Z,991.9
2023-03-22T11:09:42.566Z,991.8
2023-03-22T11:14:42.451Z,991.8
2023-03-22T11:19:42.421Z,991.8
2023-03-22T11:24:42.426Z,991.8
2023-03-22T11:29:42.426Z,991.8
2023-03-22T11:34:42.419Z,991.9
2023-03-22T11:39:42.412Z,991.9
2023-03-22T11:44:42.407Z,991.8
2023-03-22T11:49:42.415Z,991.8
2023-03-22T11:54:42.648Z,991.9
2023-03-22T11:59:42.414Z,991.8
2023-03-22T12:04:42.488Z,991.8
2023-03-22T12:09:42.504Z,991.8
2023-03-22T12:14:42.513Z,991.8
2023-03-22T12:19:42.445Z,991.8
2023-03-22T12:24:43.089Z,991.8
2023-03-22T12:29:42.427Z,991.7
2023-03-22T12:34:42.470Z,991.8
2023-03-22T12:39:42.505Z,991.7
2023-03-22T12:44:43.435Z,991.7
2023-03-22T12:49:42.508Z,991.6
2023-03-22T12:54:42.496Z,991.4
2023-03-22T12:59:42.581Z,991.4
2023-03-22T13:04:42.429Z,991.3
2023-03-22T13:09:42.538Z,991.4
2023-03-22T13:14:42.484Z,991.2
2023-03-22T13:19:42.582Z,991.3
2023-03-22T13:24:42.448Z,991.2
2023-03-22T13:29:42.513Z,991.3
2023-03-22T13:34:42.424Z,991.2
2023-03-22T13:39:42.514Z,991.1
2023-03-22T13:44:42.424Z,991.1
2023-03-22T13:49:42.561Z,991.1
2023-03-22T13:54:42.468Z,991.1
2023-03-22T13:59:42.625Z,991.1
2023-03-22T14:04:42.432Z,991.2
2023-03-22T14:09:42.553Z,991.1
2023-03-22T14:14:42.448Z,991.1
2023-03-22T14:19:42.444Z,990.9
2023-03-22T14:54:42.467Z,990.6
2023-03-22T14:59:42.514Z,990.5
2023-03-22T15:04:42.450Z,990.6
2023-03-22T15:09:42.572Z,990.4
2023-03-22T15:14:42.477Z,990.4
2023-03-22T15:19:42.518Z,990.3
2023-03-22T15:24:42.446Z,990.4
2023-03-22T15:29:42.518Z,990.3
2023-03-22T15:34:42.466Z,990.2
2023-03-22T15:39:42.550Z,990.3
2023-03-22T15:44:42.449Z,990.2
2023-03-22T15:49:42.519Z,990.2
2023-03-22T15:54:42.457Z,990.1
2023-03-22T15:59:42.521Z,990.0
2023-03-22T16:04:42.474Z,990.0
2023-03-22T16:09:42.582Z,989.9
2023-03-22T16:14:42.470Z,990.0
2023-03-22T16:19:42.652Z,990.0
2023-03-22T16:24:42.471Z,990.0
2023-03-22T16:29:42.580Z,990.0
2023-03-22T16:34:42.478Z,990.0
2023-03-22T16:39:42.533Z,989.9
2023-03-22T16:44:50.466Z,989.9
2023-03-22T16:49:42.533Z,989.8
2023-03-22T16:54:42.472Z,989.7
2023-03-22T17:04:42.505Z,989.6
2023-03-22T17:09:42.532Z,989.6
2023-03-22T17:14:42.468Z,989.6
2023-03-22T17:19:42.532Z,989.5
2023-03-22T17:24:42.498Z,989.3
2023-03-22T17:29:42.529Z,989.3
2023-03-22T17:34:42.486Z,989.3
2023-03-22T17:40:12.081Z,989.3
2023-03-22T17:44:43.327Z,989.4
2023-03-22T17:49:42.572Z,989.3
2023-03-22T17:55:01.936Z,989.3
2023-03-22T17:59:42.532Z,989.3
2023-03-22T18:04:42.482Z,989.2
2023-03-22T18:09:42.569Z,989.1
2023-03-22T18:14:42.484Z,989.1
2023-03-22T18:20:07.317Z,989.0
2023-03-22T18:24:42.475Z,989.0
2023-03-22T18:29:42.530Z,989.0
2023-03-22T18:34:42.486Z,989.0
2023-03-22T18:40:17.577Z,989.0
2023-03-22T18:44:42.478Z,988.9
2023-03-22T18:49:42.530Z,988.8
2023-03-22T18:54:43.832Z,988.7
2023-03-22T18:59:42.531Z,988.7
2023-03-22T19:04:42.468Z,988.5
2023-03-22T19:09:42.536Z,988.5
2023-03-22T19:15:24.994Z,988.6
2023-03-22T19:19:42.534Z,988.6
2023-03-22T19:24:42.464Z,988.5
2023-03-22T19:29:42.600Z,988.6
2023-03-22T19:34:42.493Z,988.5
2023-03-22T19:39:42.738Z,988.4
2023-03-22T19:44:42.462Z,988.5
2023-03-22T19:49:42.530Z,988.4
2023-03-22T19:54:45.420Z,988.4
2023-03-22T19:59:51.405Z,988.2
2023-03-22T20:04:42.483Z,988.2
2023-03-22T20:09:42.547Z,988.2
2023-03-22T20:14:42.464Z,988.1
2023-03-22T20:19:42.588Z,988.0
2023-03-22T20:24:42.474Z,987.9
2023-03-22T20:29:42.549Z,987.8
2023-03-22T20:34:42.498Z,987.7
2023-03-22T20:39:42.548Z,987.6
2023-03-22T20:44:42.492Z,987.6
2023-03-22T20:49:42.544Z,987.4
2023-03-22T20:54:42.479Z,987.2
2023-03-22T20:59:42.540Z,987.2
2023-03-22T21:04:42.463Z,987.1
2023-03-22T21:09:42.540Z,987.1
2023-03-22T21:14:42.485Z,987.0
2023-03-22T21:19:42.542Z,986.9
2023-03-22T21:24:42.492Z,986.9
2023-03-22T21:29:42.557Z,986.8
2023-03-22T21:34:42.483Z,986.8
2023-03-22T21:39:42.548Z,986.7
2023-03-22T21:44:42.484Z,986.6
2023-03-22T21:49:42.552Z,986.7
2023-03-22T21:54:42.490Z,986.5
2023-03-22T21:59:42.553Z,986.5
2023-03-22T22:04:42.488Z,986.6
2023-03-22T22:09:42.612Z,986.5
2023-03-22T22:14:42.506Z,986.5
2023-03-22T22:19:42.561Z,986.3
2023-03-22T22:24:42.506Z,986.3
2023-03-22T22:29:42.564Z,986.3
2023-03-22T22:34:42.505Z,986.2
2023-03-22T22:39:42.561Z,986.2
2023-03-22T22:44:42.492Z,986.0
2023-03-22T22:49:42.574Z,986.1
2023-03-22T22:54:42.495Z,986.1
2023-03-22T22:59:42.553Z,986.1
2023-03-22T23:04:42.489Z,986.0
2023-03-22T23:09:42.556Z,986.5
2023-03-22T23:14:42.485Z,986.4
2023-03-22T23:19:42.546Z,986.3
2023-03-22T23:24:42.469Z,986.4
2023-03-22T23:29:42.544Z,986.1
2023-03-22T23:34:42.475Z,986.0
2023-03-22T23:39:42.549Z,986.0
2023-03-22T23:44:42.489Z,986.2
2023-03-22T23:49:42.553Z,986.1
2023-03-22T23:54:42.491Z,986.0
2023-03-22T23:59:42.558Z,985.9
